KICL/ICL METAR and TAF weather

Enter ICAO airport designator
Station Type Date Time Source
KICL METAR 2022/06/25 22:55 UTC NOAA

KICL 252255Z AUTO 34011G17KT 10SM SCT035 BKN055 OVC065 28/22 A3003 RMK AO2


Station Type Date Time Source
KICL Decoded METAR 2022/06/25 22:55 UTC NOAA

Clarinda, IA, United States (KICL) 40-43N 095-02W
Jun 25, 2022 - 06:55 PM EDT / 2022.06.25 2255 UTC
Wind: from the NNW (340 degrees) at 13 MPH (11 KT) gusting to 20 MPH (17 KT):0
Visibility: 10 mile(s):0
Sky conditions: overcast
Temperature: 82 F (28 C)
Dew Point: 71 F (22 C)
Relative Humidity: 69%
Pressure (altimeter): 30.03 in. Hg (1016 hPa)
ob: KICL 252255Z AUTO 34011G17KT 10SM SCT035 BKN055 OVC065 28/22 A3003 RMK AO2
cycle: 23

Station Type Date Time Source
KICL TAF UTC NOAA

Error!

Example: see airport list